Chalk, Texas
Current Conditions -  °F | °C
As of 9:53 PM on Saturday 22 Nov 2014 (Local Time) from KCDS Reporting Station
Clear Clear  
Wind Chill: 10°   Ceiling: Unl
Heat Index: 10°   Visibility: 10mi
Dew Point:   Wind: 14mph
Humidity: 96%   Direction: 190°S
Pressure: 29.7"   Gusts: NA
Location:  33.87°N, 100.22°W
Report Text: KCDS 230353Z AUTO 19012KT 10SM CLR 10/09 A2970 RMK AO2 SLP053 T01000094
Loading
Personal Weather Stations






























Interactive Weather Map New forecast layout! Learn more

10-Day Weather Forecast

Advertisements
Track Severe Weather on mobile